Time;durP1;ratioP1;P1;durP2;ratioP2;P2;SDS_P1;SDS_P2;PMS_P1;PMS_P2;Temp;Humidity;BMP_temperature;BMP_pressure;BME280_temperature;BME280_humidity;BME280_pressure;Samples;Min_cycle;Max_cycle;Signal;HPM_P1;HPM_P2
2022/08/21 14:02:00;;;;;;;11.55;10.75;;;;;;;23.41;100.00;101503.61;1995305;71;30888;-68
2022/08/21 14:07:37;;;;;;;11.63;10.70;;;;;;;23.61;100.00;101502.69;2060520;69;25413;-67
2022/08/21 14:10:12;;;;;;;12.47;11.30;;;;;;;23.61;100.00;101504.11;1981913;72;24089;-68
2022/08/21 14:12:46;;;;;;;15.30;11.45;;;;;;;23.47;100.00;101503.65;1981983;72;24105;-70
2022/08/21 14:15:19;;;;;;;12.10;11.10;;;;;;;23.41;100.00;101505.86;1980910;72;24452;-68
2022/08/21 14:17:50;;;;;;;13.70;11.83;;;;;;;23.43;100.00;101497.87;1981840;72;24161;-68
2022/08/21 14:20:31;;;;;;;10.80;10.20;;;;;;;23.46;100.00;101497.15;1981795;72;24544;-67
2022/08/21 14:23:02;;;;;;;11.78;10.63;;;;;;;23.33;100.00;101487.56;1947019;74;24109;-70
2022/08/21 14:25:40;;;;;;;11.73;10.93;;;;;;;23.41;100.00;101495.11;1946755;73;24144;-69
2022/08/21 14:28:22;;;;;;;11.70;10.90;;;;;;;23.29;100.00;101486.03;1946666;74;24551;-68
2022/08/21 14:30:53;;;;;;;12.05;10.85;;;;;;;23.33;100.00;101486.14;1947057;74;24559;-67
2022/08/21 14:33:28;;;;;;;12.25;10.82;;;;;;;23.48;100.00;101486.29;1946869;74;24128;-69
2022/08/21 14:36:00;;;;;;;11.45;10.80;;;;;;;23.46;100.00;101475.88;1947155;74;24156;-67
2022/08/21 14:38:32;;;;;;;11.88;11.03;;;;;;;23.65;100.00;101473.01;1946901;74;24595;-68
2022/08/21 14:41:06;;;;;;;11.68;10.88;;;;;;;23.65;100.00;101477.27;1947762;74;24568;-67
2022/08/21 14:43:37;;;;;;;12.33;11.38;;;;;;;23.70;100.00;101477.02;1948393;73;24171;-68
2022/08/21 14:46:09;;;;;;;12.15;11.25;;;;;;;23.62;100.00;101473.12;1947016;74;24176;-67
2022/08/21 14:48:39;;;;;;;11.88;11.10;;;;;;;23.84;100.00;101474.00;1946738;74;24101;-68
2022/08/21 14:51:10;;;;;;;11.53;10.70;;;;;;;23.81;100.00;101471.06;1944990;74;24661;-67
2022/08/21 14:56:41;;;;;;;11.38;10.45;;;;;;;24.00;100.00;101459.89;2024170;70;26548;-67
2022/08/21 14:59:13;;;;;;;10.95;10.20;;;;;;;23.97;100.00;101469.93;1989640;72;24106;-67
2022/08/21 15:04:46;;;;;;;11.60;10.80;;;;;;;23.76;100.00;101460.79;2061581;69;25475;-66
2022/08/21 15:07:19;;;;;;;17.55;11.83;;;;;;;23.84;100.00;101467.49;2026393;71;24164;-67
2022/08/21 15:09:50;;;;;;;22.20;11.95;;;;;;;23.89;100.00;101465.23;1945061;73;24104;-67
2022/08/21 15:12:21;;;;;;;11.63;10.93;;;;;;;23.72;100.00;101470.38;1985451;72;24096;-67
2022/08/21 15:14:52;;;;;;;13.20;12.30;;;;;;;23.67;100.00;101461.52;1981826;72;24634;-66
2022/08/21 15:17:25;;;;;;;16.80;15.53;;;;;;;23.82;100.00;101452.27;1981719;72;24178;-66
2022/08/21 15:19:57;;;;;;;13.05;11.85;;;;;;;23.75;100.00;101453.45;1981903;72;24106;-67
2022/08/21 15:22:28;;;;;;;12.13;10.95;;;;;;;23.89;100.00;101449.63;1982404;72;24097;-66
2022/08/21 15:25:00;;;;;;;12.10;11.05;;;;;;;23.92;100.00;101449.48;1983068;72;24510;-67
2022/08/21 15:27:31;;;;;;;11.50;10.70;;;;;;;23.85;100.00;101455.80;1981850;72;24101;-66
2022/08/21 15:30:03;;;;;;;12.50;11.30;;;;;;;23.95;100.00;101458.72;1981767;72;24117;-67
2022/08/21 15:32:34;;;;;;;12.07;11.08;;;;;;;24.00;100.00;101459.27;1981944;72;24202;-66
2022/08/21 15:35:06;;;;;;;12.18;10.98;;;;;;;23.93;100.00;101459.07;1981783;72;24684;-67
2022/08/21 15:37:37;;;;;;;11.80;11.08;;;;;;;24.02;100.00;101455.48;1982087;72;24109;-67
2022/08/21 15:40:10;;;;;;;11.48;10.78;;;;;;;24.02;100.00;101451.82;1982094;72;24106;-67
2022/08/21 15:42:42;;;;;;;11.48;10.65;;;;;;;24.00;100.00;101450.75;1981779;72;24199;-67
2022/08/21 15:45:14;;;;;;;11.63;10.75;;;;;;;24.00;100.00;101454.21;1982622;72;24179;-68
2022/08/21 15:47:48;;;;;;;11.80;10.80;;;;;;;24.02;100.00;101443.30;1981966;72;24125;-69
2022/08/21 15:53:18;;;;;;;12.85;11.73;;;;;;;24.04;100.00;101449.46;2062154;69;26568;-64
2022/08/21 15:55:49;;;;;;;11.85;10.88;;;;;;;23.98;100.00;101448.88;1981986;72;24605;-67
2022/08/21 15:58:20;;;;;;;11.48;10.72;;;;;;;23.96;100.00;101446.19;1981870;72;24402;-67
2022/08/21 16:00:52;;;;;;;11.60;10.90;;;;;;;23.86;100.00;101448.94;1981799;72;24109;-67
2022/08/21 16:03:23;;;;;;;11.08;10.38;;;;;;;23.97;100.00;101448.64;1981733;72;24586;-68
2022/08/21 16:05:56;;;;;;;11.57;10.88;;;;;;;23.91;100.00;101447.86;1981795;72;24178;-68
2022/08/21 16:08:27;;;;;;;11.90;11.00;;;;;;;23.87;100.00;101444.92;1981914;72;24603;-68
2022/08/21 16:10:58;;;;;;;12.00;11.12;;;;;;;23.82;100.00;101447.19;1981911;72;24114;-67
2022/08/21 16:13:31;;;;;;;12.30;11.45;;;;;;;23.81;100.00;101444.11;1981925;72;24105;-68
2022/08/21 16:16:02;;;;;;;12.33;11.33;;;;;;;23.79;100.00;101436.56;1981931;72;24157;-68
2022/08/21 16:18:33;;;;;;;12.40;11.45;;;;;;;23.89;100.00;101433.19;1981764;72;24626;-68
2022/08/21 16:21:06;;;;;;;11.57;10.78;;;;;;;23.97;100.00;101435.05;1981687;72;24614;-68
2022/08/21 16:23:37;;;;;;;12.00;11.00;;;;;;;23.96;100.00;101434.22;1981748;72;24575;-68
2022/08/21 16:26:10;;;;;;;11.50;10.70;;;;;;;23.97;100.00;101432.20;1981772;72;24167;-67
2022/08/21 16:28:43;;;;;;;11.68;10.98;;;;;;;23.82;100.00;101435.83;1981885;72;24164;-69
2022/08/21 16:31:14;;;;;;;12.03;11.12;;;;;;;23.67;100.00;101439.42;1981734;72;24105;-68
2022/08/21 16:33:47;;;;;;;12.45;11.20;;;;;;;23.65;100.00;101442.64;1981723;72;24101;-67
2022/08/21 16:36:18;;;;;;;13.80;11.03;;;;;;;23.67;100.00;101443.09;1981897;72;24104;-68
2022/08/21 16:38:48;;;;;;;11.83;10.90;;;;;;;23.76;100.00;101447.20;1981673;72;24113;-68
2022/08/21 16:41:21;;;;;;;12.25;11.18;;;;;;;23.77;100.00;101444.59;1981787;72;24186;-68
2022/08/21 16:43:54;;;;;;;12.07;10.95;;;;;;;23.78;100.00;101438.57;1981828;72;24540;-68
2022/08/21 16:46:25;;;;;;;11.30;10.50;;;;;;;23.79;100.00;101435.14;1981765;72;24552;-68
2022/08/21 16:48:55;;;;;;;11.53;10.82;;;;;;;23.80;100.00;101436.77;1981897;72;24109;-68
2022/08/21 16:51:26;;;;;;;12.13;11.22;;;;;;;23.73;100.00;101435.16;1979436;72;26215;-68
2022/08/21 16:53:56;;;;;;;11.80;11.00;;;;;;;23.78;100.00;101432.90;1979681;72;24114;-68
2022/08/21 16:56:27;;;;;;;11.50;10.60;;;;;;;23.80;100.00;101433.94;1979649;72;24578;-68
2022/08/21 16:58:59;;;;;;;11.57;10.65;;;;;;;23.78;100.00;101435.73;1979917;72;24107;-68
2022/08/21 17:01:33;;;;;;;12.98;11.68;;;;;;;23.80;100.00;101431.09;1979920;72;24692;-68
2022/08/21 17:04:05;;;;;;;11.90;11.10;;;;;;;23.84;100.00;101437.70;1979206;72;24111;-68
2022/08/21 17:06:35;;;;;;;11.73;10.82;;;;;;;23.87;100.00;101430.73;1979390;72;24610;-68
2022/08/21 17:09:06;;;;;;;11.45;10.72;;;;;;;23.73;100.00;101432.32;1979108;72;24666;-68
2022/08/21 17:14:35;;;;;;;11.97;11.18;;;;;;;23.84;100.00;101431.44;2060409;69;26401;-68
2022/08/21 17:17:09;;;;;;;11.95;10.85;;;;;;;23.79;100.00;101439.41;1956207;71;24163;-68
2022/08/21 17:19:40;;;;;;;10.98;10.28;;;;;;;23.78;100.00;101434.91;1961732;72;24163;-68
2022/08/21 17:22:11;;;;;;;11.90;10.88;;;;;;;23.71;100.00;101429.00;1968339;73;24118;-68
2022/08/21 17:24:42;;;;;;;10.70;10.00;;;;;;;23.69;100.00;101433.64;1964376;72;24228;-68
2022/08/21 17:27:13;;;;;;;11.20;10.40;;;;;;;23.74;100.00;101435.39;1968883;72;24213;-68
2022/08/21 17:29:44;;;;;;;12.47;11.48;;;;;;;23.74;100.00;101430.55;2008527;70;24124;-68
2022/08/21 17:32:17;;;;;;;11.20;10.40;;;;;;;23.75;100.00;101431.35;1929233;72;24780;-68
2022/08/21 17:34:51;;;;;;;11.15;10.32;;;;;;;23.71;100.00;101437.52;1994587;70;24580;-68
2022/08/21 17:37:22;;;;;;;12.20;11.05;;;;;;;23.66;100.00;101437.17;1960924;72;24662;-69
2022/08/21 17:39:53;;;;;;;11.70;10.70;;;;;;;23.63;100.00;101435.66;2012396;70;24139;-69
2022/08/21 17:42:24;;;;;;;11.30;10.50;;;;;;;23.72;100.00;101437.16;2008049;70;24139;-69
2022/08/21 17:44:56;;;;;;;11.80;10.80;;;;;;;23.65;100.00;101436.96;1926712;73;24585;-69
2022/08/21 17:47:27;;;;;;;11.35;10.70;;;;;;;23.75;100.00;101433.59;2004170;70;24639;-68
2022/08/21 17:49:58;;;;;;;12.00;10.90;;;;;;;23.74;100.00;101432.56;1964028;73;24613;-67
2022/08/21 17:52:29;;;;;;;11.05;10.25;;;;;;;23.70;100.00;101434.47;1964256;72;24629;-68
2022/08/21 17:58:02;;;;;;;12.33;11.48;;;;;;;23.74;100.00;101431.97;2060506;69;25998;-67
2022/08/21 18:00:34;;;;;;;12.43;11.40;;;;;;;23.64;100.00;101437.31;1981878;72;24540;-67
2022/08/21 18:03:11;;;;;;;12.13;11.33;;;;;;;23.71;100.00;101441.18;1981983;72;24207;-67
2022/08/21 18:05:43;;;;;;;12.07;11.18;;;;;;;23.78;100.00;101438.57;1981932;72;24210;-67
2022/08/21 18:08:14;;;;;;;12.20;11.50;;;;;;;23.72;100.00;101439.17;1985444;72;24711;-66
2022/08/21 18:10:47;;;;;;;12.68;11.55;;;;;;;23.70;100.00;101439.55;1981842;72;24100;-67
2022/08/21 18:13:20;;;;;;;12.23;11.12;;;;;;;23.55;100.00;101434.63;1981839;72;24116;-66
2022/08/21 18:15:53;;;;;;;10.75;10.10;;;;;;;23.58;100.00;101436.14;1981798;72;24155;-67
2022/08/21 18:18:25;;;;;;;10.88;10.00;;;;;;;23.50;100.00;101437.11;1981924;72;24182;-68
2022/08/21 18:20:56;;;;;;;14.78;11.48;;;;;;;23.54;100.00;101438.05;1981851;72;24101;-67
2022/08/21 18:23:27;;;;;;;12.80;11.18;;;;;;;23.51;100.00;101433.69;1982052;72;24174;-67
2022/08/21 18:25:59;;;;;;;12.63;11.55;;;;;;;23.51;100.00;101432.27;1981981;72;24106;-67
2022/08/21 18:28:30;;;;;;;11.60;10.82;;;;;;;23.43;100.00;101435.48;1982091;72;24227;-67
2022/08/21 18:31:01;;;;;;;12.00;11.12;;;;;;;23.48;100.00;101440.91;1981771;72;24156;-67
2022/08/21 18:33:32;;;;;;;12.18;11.30;;;;;;;23.32;100.00;101441.98;1981866;72;24146;-67
2022/08/21 18:36:03;;;;;;;12.70;11.80;;;;;;;23.47;100.00;101439.26;1981678;72;24174;-67
2022/08/21 18:38:34;;;;;;;12.78;11.48;;;;;;;23.55;100.00;101444.55;1981808;72;24175;-67
2022/08/21 18:41:06;;;;;;;11.68;10.93;;;;;;;23.50;100.00;101443.37;1981722;72;24117;-67
2022/08/21 18:43:37;;;;;;;11.53;10.53;;;;;;;23.42;100.00;101444.31;1981712;72;24539;-68
2022/08/21 18:46:08;;;;;;;11.75;10.82;;;;;;;23.51;100.00;101445.03;1981885;72;24097;-67
2022/08/21 18:48:39;;;;;;;11.63;10.72;;;;;;;23.19;100.00;101448.23;1981831;72;24110;-67
2022/08/21 18:51:11;;;;;;;12.15;11.43;;;;;;;23.18;100.00;101452.86;1947861;72;24155;-67
2022/08/21 18:53:41;;;;;;;13.03;11.78;;;;;;;23.10;100.00;101453.23;1911219;75;24164;-67
2022/08/21 18:59:14;;;;;;;11.70;10.75;;;;;;;22.86;100.00;101459.71;2060330;69;25919;-67
2022/08/21 19:01:46;;;;;;;13.08;11.97;;;;;;;22.73;100.00;101464.30;2026053;71;24088;-67
2022/08/21 19:04:16;;;;;;;13.25;12.25;;;;;;;22.69;100.00;101465.60;1945186;73;24115;-67
2022/08/21 19:06:48;;;;;;;13.68;12.45;;;;;;;22.83;100.00;101470.93;1985482;72;24112;-67
2022/08/21 19:09:19;;;;;;;13.10;12.07;;;;;;;22.82;100.00;101469.27;1981849;72;24547;-68
2022/08/21 19:11:50;;;;;;;12.95;12.05;;;;;;;22.82;100.00;101473.52;1981852;72;24112;-67
2022/08/21 19:14:21;;;;;;;13.00;12.00;;;;;;;22.59;100.00;101474.55;1981954;72;24539;-67
2022/08/21 19:16:52;;;;;;;12.55;11.57;;;;;;;22.31;100.00;101479.17;1981923;72;24646;-68
2022/08/21 19:19:22;;;;;;;12.95;11.85;;;;;;;22.40;100.00;101478.50;1981871;72;24113;-67
2022/08/21 19:21:53;;;;;;;13.48;12.40;;;;;;;22.44;100.00;101478.86;1981916;72;24182;-67
2022/08/21 19:24:24;;;;;;;13.38;12.35;;;;;;;22.52;100.00;101477.10;1981724;72;24666;-67
2022/08/21 19:26:55;;;;;;;13.85;12.60;;;;;;;22.43;100.00;101478.62;1981715;72;24113;-67
2022/08/21 19:29:26;;;;;;;13.70;12.70;;;;;;;22.35;100.00;101490.03;1981822;72;24602;-67
2022/08/21 19:31:57;;;;;;;13.05;12.20;;;;;;;22.20;100.00;101483.05;1981924;72;24113;-68
2022/08/21 19:34:28;;;;;;;13.87;12.93;;;;;;;22.41;100.00;101484.41;1981991;72;24101;-68
2022/08/21 19:36:59;;;;;;;13.88;12.88;;;;;;;22.10;100.00;101489.13;1981710;72;24174;-68
2022/08/21 19:39:34;;;;;;;15.18;13.90;;;;;;;22.33;100.00;101486.16;1981920;72;24110;-68
2022/08/21 19:42:02;;;;;;;15.55;14.20;;;;;;;22.34;100.00;101496.88;1981337;72;24623;-68
2022/08/21 19:44:35;;;;;;;13.90;12.80;;;;;;;22.23;100.00;101500.16;1981752;72;24564;-69
2022/08/21 19:47:09;;;;;;;13.05;12.05;;;;;;;22.41;100.00;101502.22;1981846;72;24128;-68
2022/08/21 19:49:42;;;;;;;13.05;11.93;;;;;;;22.26;100.00;101512.77;1969799;72;24150;-68
2022/08/21 19:55:12;;;;;;;13.85;12.73;;;;;;;22.15;100.00;101512.39;2060148;69;25970;-69
2022/08/21 19:57:43;;;;;;;13.72;12.58;;;;;;;22.15;100.00;101514.39;1981819;72;24137;-70
2022/08/21 20:00:18;;;;;;;14.53;13.40;;;;;;;21.72;100.00;101518.39;1981795;72;24186;-70
2022/08/21 20:02:49;;;;;;;14.93;13.98;;;;;;;21.51;100.00;101513.30;1981923;72;24097;-70
2022/08/21 20:05:21;;;;;;;14.13;13.00;;;;;;;21.16;100.00;101521.16;1981824;72;24551;-69
2022/08/21 20:07:53;;;;;;;15.03;13.78;;;;;;;21.10;100.00;101525.30;1981855;72;24166;-69
2022/08/21 20:10:24;;;;;;;15.13;14.13;;;;;;;21.03;100.00;101534.06;1981728;72;24144;-69
2022/08/21 20:12:54;;;;;;;17.07;15.90;;;;;;;21.06;100.00;101531.97;1981679;72;24152;-69
2022/08/21 20:15:25;;;;;;;16.73;15.72;;;;;;;20.97;100.00;101539.64;1981734;72;24241;-69
2022/08/21 20:17:56;;;;;;;16.93;16.00;;;;;;;20.78;100.00;101543.73;1981860;72;24688;-69
2022/08/21 20:20:26;;;;;;;17.93;16.63;;;;;;;20.78;100.00;101540.07;1981689;72;24616;-70
2022/08/21 20:22:57;;;;;;;19.37;17.87;;;;;;;20.75;100.00;101537.94;1981805;72;24548;-70
2022/08/21 20:25:30;;;;;;;17.70;16.60;;;;;;;20.77;100.00;101541.23;1981992;72;24129;-69
2022/08/21 20:28:01;;;;;;;18.97;17.67;;;;;;;20.75;100.00;101540.14;1981815;72;24101;-70
2022/08/21 20:30:31;;;;;;;19.30;18.07;;;;;;;20.67;100.00;101538.18;1981735;72;24194;-70
2022/08/21 20:33:02;;;;;;;18.53;17.43;;;;;;;20.66;100.00;101542.77;1981758;72;24490;-68
2022/08/21 20:35:32;;;;;;;20.03;18.30;;;;;;;20.59;100.00;101544.68;1981757;72;24561;-68
2022/08/21 20:38:03;;;;;;;20.50;19.00;;;;;;;20.53;100.00;101548.87;1981741;72;24114;-68
2022/08/21 20:40:34;;;;;;;22.17;20.67;;;;;;;20.45;100.00;101549.72;1981818;72;24109;-70
2022/08/21 20:43:05;;;;;;;21.00;19.70;;;;;;;20.42;100.00;101546.13;1981906;72;26678;-69
2022/08/21 20:45:38;;;;;;;21.30;19.80;;;;;;;20.45;100.00;101551.93;1981887;72;24210;-69
2022/08/21 20:48:12;;;;;;;21.87;20.57;;;;;;;20.48;100.00;101550.45;1981838;72;24170;-70
2022/08/21 20:54:01;;;;;;;25.30;23.80;;;;;;;20.26;100.00;101554.84;1991804;71;31389;-68
2022/08/21 20:59:46;;;;;;;25.63;23.90;;;;;;;20.15;100.00;101549.30;2060537;69;25546;-72
2022/08/21 21:02:30;;;;;;;26.30;24.40;;;;;;;20.23;100.00;101552.70;1981884;72;24109;-70
2022/08/21 21:05:03;;;;;;;27.27;25.40;;;;;;;20.30;100.00;101553.88;1927974;74;24161;-68
2022/08/21 21:07:38;;;;;;;28.60;26.80;;;;;;;20.18;100.00;101549.46;1950025;73;24121;-68
2022/08/21 21:10:13;;;;;;;29.60;27.70;;;;;;;20.21;100.00;101547.95;1950104;73;26786;-68
2022/08/21 21:12:46;;;;;;;28.33;26.63;;;;;;;20.06;100.00;101543.66;1950242;73;24088;-69
2022/08/21 21:15:21;;;;;;;31.30;29.13;;;;;;;20.10;100.00;101538.19;1950245;73;24148;-67
2022/08/21 21:17:54;;;;;;;29.87;27.87;;;;;;;19.98;100.00;101545.30;1950033;73;24152;-68
2022/08/21 21:20:28;;;;;;;30.53;28.40;;;;;;;20.08;100.00;101548.95;1949492;73;24138;-67
2022/08/21 21:23:01;;;;;;;30.77;28.57;;;;;;;19.96;100.00;101540.59;1950263;73;24106;-67
2022/08/21 21:25:35;;;;;;;29.13;27.23;;;;;;;19.95;100.00;101543.73;1949277;73;24579;-67
2022/08/21 21:28:09;;;;;;;29.33;27.53;;;;;;;20.05;100.00;101536.36;1950190;73;24121;-68
2022/08/21 21:30:42;;;;;;;29.73;27.93;;;;;;;19.92;100.00;101531.71;1950156;73;24102;-67
2022/08/21 21:33:15;;;;;;;29.30;27.40;;;;;;;19.87;100.00;101534.69;1949999;73;24109;-68
2022/08/21 21:35:49;;;;;;;30.50;28.43;;;;;;;19.91;100.00;101531.45;1950029;73;24190;-68
2022/08/21 21:38:23;;;;;;;31.87;29.87;;;;;;;19.85;100.00;101527.97;1949995;73;24214;-68
2022/08/21 21:41:01;;;;;;;40.97;38.37;;;;;;;19.77;100.00;101525.97;1949946;73;24117;-68
2022/08/21 21:43:52;;;;;;;42.77;40.07;;;;;;;19.63;100.00;101521.67;1949739;73;24234;-68
2022/08/21 21:46:29;;;;;;;43.40;40.33;;;;;;;19.53;100.00;101516.59;1949992;73;24180;-68
2022/08/21 21:49:06;;;;;;;41.63;38.83;;;;;;;19.53;100.00;101518.58;1949568;73;24101;-68
2022/08/21 21:55:14;;;;;;;41.80;39.27;;;;;;;19.38;100.00;101510.58;2006480;71;30830;-68
2022/08/21 21:57:55;;;;;;;40.67;38.10;;;;;;;19.41;100.00;101514.14;1976280;72;26647;-68
2022/08/21 22:03:45;;;;;;;44.90;42.20;;;;;;;19.38;100.00;101508.56;2006107;71;31463;-68
2022/08/21 22:06:18;;;;;;;48.80;45.77;;;;;;;19.05;100.00;101513.79;1985457;72;24162;-68
2022/08/21 22:08:52;;;;;;;48.93;45.90;;;;;;;18.83;100.00;101516.68;1981040;72;24738;-68
2022/08/21 22:11:26;;;;;;;51.07;47.93;;;;;;;18.92;100.00;101508.27;1986074;72;24155;-68
2022/08/21 22:14:01;;;;;;;61.87;58.07;;;;;;;18.99;100.00;101509.48;1984873;72;24158;-68
2022/08/21 22:19:49;;;;;;;68.40;64.30;;;;;;;18.30;100.00;101511.66;2016919;71;31470;-68
2022/08/21 22:25:23;;;;;;;71.37;67.07;;;;;;;17.68;100.00;101514.30;2055937;69;25239;-68
2022/08/21 22:30:59;;;;;;;71.93;67.47;;;;;;;17.59;100.00;101513.39;2060213;69;25978;-67
2022/08/21 22:33:31;;;;;;;75.13;70.63;;;;;;;17.52;100.00;101515.21;2023306;70;24171;-67
2022/08/21 22:36:03;;;;;;;70.77;66.33;;;;;;;17.42;100.00;101511.78;2026031;71;26725;-67
2022/08/21 22:38:35;;;;;;;71.33;66.47;;;;;;;17.39;100.00;101509.62;2023359;71;24111;-67
2022/08/21 22:41:16;;;;;;;73.03;68.43;;;;;;;17.33;100.00;101511.70;1927521;74;24554;-68
2022/08/21 22:43:59;;;;;;;75.27;70.53;;;;;;;17.44;100.00;101502.48;1950011;73;24094;-68
2022/08/21 22:49:34;;;;;;;70.50;65.87;;;;;;;17.26;100.00;101502.88;2050752;69;26004;-68
2022/08/21 22:55:22;;;;;;;72.17;67.57;;;;;;;17.06;100.00;101512.58;2060103;69;25741;-69
2022/08/21 22:58:05;;;;;;;71.83;67.27;;;;;;;16.99;100.00;101516.36;1981936;72;24150;-68
2022/08/21 23:00:45;;;;;;;70.63;66.23;;;;;;;17.13;100.00;101513.55;1981871;72;24113;-69
2022/08/21 23:03:26;;;;;;;71.87;67.20;;;;;;;17.10;100.00;101505.77;1981871;72;24182;-69
2022/08/21 23:05:58;;;;;;;72.30;67.60;;;;;;;17.06;100.00;101514.55;1981843;72;26213;-69
2022/08/21 23:11:38;;;;;;;73.60;68.73;;;;;;;17.34;100.00;101512.53;2060107;69;25914;-69
2022/08/21 23:14:09;;;;;;;69.53;65.00;;;;;;;17.49;100.00;101514.45;1981982;72;26298;-69
2022/08/21 23:16:44;;;;;;;73.20;68.33;;;;;;;17.54;100.00;101513.50;1981775;72;24104;-66
2022/08/21 23:19:18;;;;;;;75.77;70.97;;;;;;;17.45;100.00;101510.61;1981952;72;24171;-69
2022/08/21 23:21:52;;;;;;;71.97;67.57;;;;;;;17.29;100.00;101516.28;1982221;72;24130;-69
2022/08/21 23:24:49;;;;;;;73.43;68.63;;;;;;;17.50;100.00;101517.48;1982092;72;24612;-67
2022/08/21 23:27:24;;;;;;;71.53;66.87;;;;;;;17.65;100.00;101526.19;1981979;72;24117;-66
2022/08/21 23:29:59;;;;;;;71.97;67.50;;;;;;;17.67;100.00;101530.33;1981763;72;24114;-66
2022/08/21 23:32:39;;;;;;;70.97;66.67;;;;;;;17.67;100.00;101523.31;1981739;72;26609;-66
2022/08/21 23:35:13;;;;;;;71.50;67.00;;;;;;;17.70;100.00;101526.91;1980681;72;24149;-68
2022/08/21 23:37:49;;;;;;;73.13;68.50;;;;;;;17.48;100.00;101533.02;1982082;72;24632;-68
2022/08/21 23:40:38;;;;;;;73.23;68.77;;;;;;;17.49;100.00;101536.08;1946752;74;24215;-68
2022/08/21 23:43:17;;;;;;;73.60;68.90;;;;;;;17.28;100.00;101530.89;1946768;73;24132;-68
2022/08/21 23:45:54;;;;;;;75.23;70.33;;;;;;;16.92;100.00;101523.53;1945336;73;24119;-68
2022/08/21 23:48:28;;;;;;;74.80;70.00;;;;;;;16.82;100.00;101526.80;1980366;72;24149;-68
2022/08/21 23:54:02;;;;;;;76.07;71.17;;;;;;;16.61;100.00;101521.33;2037566;69;25988;-68
2022/08/21 23:56:38;;;;;;;76.77;71.93;;;;;;;16.65;100.00;101527.98;2003827;70;26631;-68
2022/08/21 23:59:13;;;;;;;78.20;73.10;;;;;;;16.67;100.00;101525.71;2011290;69;24162;-68
